createdAt,value
2017-12-02T00:01:06.218Z,90.69
2017-12-02T00:02:16.203Z,90.41
2017-12-02T00:03:26.240Z,91.06
2017-12-02T00:04:36.221Z,90.41
2017-12-02T00:05:45.940Z,90.41
2017-12-02T00:06:55.920Z,91.63
2017-12-02T00:08:05.372Z,91.44
2017-12-02T00:09:15.466Z,91.35
2017-12-02T00:10:25.178Z,90.78
2017-12-02T00:11:35.156Z,91.25
2017-12-02T00:12:45.136Z,91.35
2017-12-02T00:13:55.125Z,91.44
2017-12-02T00:15:05.107Z,92
2017-12-02T00:16:14.820Z,92.47
2017-12-02T00:17:24.535Z,92
2017-12-02T00:18:34.527Z,92.47
2017-12-02T00:19:44.239Z,92.47
2017-12-02T00:20:54.009Z,92
2017-12-02T00:22:03.733Z,91.06
2017-12-02T00:23:13.712Z,91.35
2017-12-02T00:24:23.732Z,90.78
2017-12-02T00:25:33.448Z,90.97
2017-12-02T00:26:43.430Z,90.59
2017-12-02T00:27:53.408Z,90.88
2017-12-02T00:29:03.142Z,90.88
2017-12-02T00:30:13.190Z,91.06
2017-12-02T00:31:22.908Z,92.47
2017-12-02T00:32:32.891Z,92.47
2017-12-02T00:33:42.867Z,93.32
2017-12-02T00:34:52.846Z,93.7
2017-12-02T00:36:02.555Z,93.7
2017-12-02T00:37:12.294Z,93.8
2017-12-02T00:38:22.303Z,94.36
2017-12-02T00:39:32.012Z,94.46
2017-12-02T00:40:41.719Z,94.27
2017-12-02T00:41:51.695Z,93.98
2017-12-02T00:43:01.405Z,94.17
2017-12-02T00:44:11.116Z,94.36
2017-12-02T00:45:21.103Z,95.02
2017-12-02T00:46:31.078Z,95.87
2017-12-02T00:47:41.055Z,95.68
2017-12-02T00:48:51.030Z,95.21
2017-12-02T00:50:00.792Z,95.31
2017-12-02T00:51:10.502Z,95.59
2017-12-02T00:52:20.481Z,95.5
2017-12-02T00:53:30.453Z,95.78
2017-12-02T00:54:40.438Z,95.87
2017-12-02T00:55:50.481Z,96.06
2017-12-02T00:57:00.205Z,96.06
2017-12-02T00:58:10.179Z,95.59
2017-12-02T00:59:20.163Z,94.74
2017-12-02T01:00:30.139Z,94.55
2017-12-02T01:01:39.859Z,95.12
2017-12-02T01:02:49.572Z,95.02
2017-12-02T01:03:59.552Z,94.65
2017-12-02T01:05:09.000Z,94.46
2017-12-02T01:06:18.982Z,93.98
2017-12-02T01:07:27.903Z,95.02
2017-12-02T01:08:37.878Z,95.78
2017-12-02T01:09:47.852Z,95.12
2017-12-02T01:10:57.846Z,95.21
2017-12-02T01:12:07.292Z,95.31
2017-12-02T01:13:17.010Z,94.93
2017-12-02T01:14:26.993Z,94.65
2017-12-02T01:15:36.712Z,94.55
2017-12-02T01:16:46.743Z,94.27
2017-12-02T01:17:56.721Z,94.08
2017-12-02T01:19:06.420Z,94.36
2017-12-02T01:20:16.398Z,94.55
2017-12-02T01:21:26.167Z,93.94
2017-12-02T01:22:35.879Z,93.84
2017-12-02T01:23:45.864Z,94.13
2017-12-02T01:24:55.837Z,94.51
2017-12-02T01:26:05.835Z,93.84
2017-12-02T01:27:15.871Z,93.47
2017-12-02T01:28:25.918Z,93.75
2017-12-02T01:29:35.906Z,93.18
2017-12-02T01:30:45.887Z,92.57
2017-12-02T01:31:55.867Z,92.99
2017-12-02T01:33:05.846Z,92.24
2017-12-02T01:34:15.558Z,92.66
2017-12-02T01:35:25.548Z,92.43
2017-12-02T01:36:35.529Z,92.43
2017-12-02T01:37:45.513Z,92.8
2017-12-02T01:38:55.549Z,92.43
2017-12-02T01:40:05.263Z,92.52
2017-12-02T01:41:15.246Z,92.9
2017-12-02T01:42:25.231Z,92.71
2017-12-02T01:43:35.215Z,92.9
2017-12-02T01:44:44.929Z,92.8
2017-12-02T01:45:54.640Z,92.33
2017-12-02T01:47:04.355Z,92.33
2017-12-02T01:48:14.070Z,92.71
2017-12-02T01:49:24.054Z,92.14
2017-12-02T01:50:33.763Z,92.33
2017-12-02T01:51:43.473Z,91.96
2017-12-02T01:52:53.452Z,91.67
2017-12-02T01:54:03.468Z,91.67
2017-12-02T01:55:13.448Z,91.39
2017-12-02T01:56:23.430Z,91.2
2017-12-02T01:57:33.145Z,91.77
2017-12-02T01:58:43.121Z,92.24
2017-12-02T01:59:52.839Z,92.43
2017-12-02T02:01:02.819Z,92.8
2017-12-02T02:02:13.092Z,92.8
2017-12-02T02:03:23.070Z,92.24
2017-12-02T02:04:33.048Z,92.43
2017-12-02T02:05:43.025Z,92.05
2017-12-02T02:06:52.471Z,92.24
2017-12-02T02:08:02.183Z,92.52
2017-12-02T02:09:12.172Z,92.8
2017-12-02T02:10:22.160Z,93.75
2017-12-02T02:11:32.138Z,93.65
2017-12-02T02:12:41.895Z,93.94
2017-12-02T02:13:51.885Z,94.03
2017-12-02T02:15:01.601Z,93.56
2017-12-02T02:16:11.586Z,93.18
2017-12-02T02:17:21.563Z,93.18
2017-12-02T02:18:31.555Z,92.8
2017-12-02T02:19:41.532Z,92.71
2017-12-02T02:20:51.512Z,92.9
2017-12-02T02:22:01.234Z,92.61
2017-12-02T02:23:10.949Z,92.61
2017-12-02T02:24:20.934Z,92.71
2017-12-02T02:25:30.642Z,92.43
2017-12-02T02:26:40.620Z,92.52
2017-12-02T02:27:50.604Z,92.14
2017-12-02T02:29:00.585Z,92.33
2017-12-02T02:30:10.583Z,92.99
2017-12-02T02:31:20.567Z,92.52
2017-12-02T02:32:30.542Z,92.8
2017-12-02T02:33:40.536Z,92.8
2017-12-02T02:34:50.531Z,93.65
2017-12-02T02:36:00.246Z,94.13
2017-12-02T02:37:10.247Z,94.51
2017-12-02T02:38:20.013Z,94.03
2017-12-02T02:39:30.050Z,92.99
2017-12-02T02:40:40.040Z,93.18
2017-12-02T02:41:50.036Z,92.61
2017-12-02T02:43:00.021Z,93.18
2017-12-02T02:44:10.016Z,93.47
2017-12-02T02:45:20.005Z,93.56
2017-12-02T02:46:31.456Z,93.75
2017-12-02T02:47:41.458Z,94.22
2017-12-02T02:48:51.443Z,94.51
2017-12-02T02:50:01.426Z,94.41
2017-12-02T02:51:11.407Z,94.41
2017-12-02T02:52:21.413Z,94.41
2017-12-02T02:53:31.399Z,94.51
2017-12-02T02:54:41.381Z,94.6
2017-12-02T02:55:51.444Z,94.41
2017-12-02T02:57:01.161Z,93.94
2017-12-02T02:58:11.140Z,94.22
2017-12-02T02:59:20.854Z,94.32
2017-12-02T03:00:30.832Z,94.41
2017-12-02T03:01:40.817Z,94.41
2017-12-02T03:02:50.793Z,94.98
2017-12-02T03:04:00.772Z,94.41
2017-12-02T03:05:10.488Z,94.41
2017-12-02T03:06:20.474Z,94.88
2017-12-02T03:07:30.455Z,94.88
2017-12-02T03:08:40.505Z,95.17
2017-12-02T03:09:50.483Z,95.54
2017-12-02T03:11:00.465Z,95.73
2017-12-02T03:12:10.441Z,94.88
2017-12-02T03:13:20.155Z,94.79
2017-12-02T03:14:30.132Z,94.32
2017-12-02T03:15:40.131Z,93.84
2017-12-02T03:16:49.848Z,93.94
2017-12-02T03:17:59.835Z,93.84
2017-12-02T03:19:09.545Z,93.84
2017-12-02T03:20:19.537Z,93.84
2017-12-02T03:21:29.252Z,93.56
2017-12-02T03:22:39.238Z,94.41
2017-12-02T03:23:49.218Z,94.88
2017-12-02T03:24:59.193Z,95.17
2017-12-02T03:26:09.173Z,94.79
2017-12-02T03:27:18.888Z,93.47
2017-12-02T03:28:28.880Z,93.09
2017-12-02T03:29:38.866Z,94.32
2017-12-02T03:30:48.860Z,94.41
2017-12-02T03:31:58.587Z,93.09
2017-12-02T03:33:08.314Z,92.71
2017-12-02T03:34:18.293Z,92.61
2017-12-02T03:35:28.283Z,92.24
2017-12-02T03:36:38.266Z,92.43
2017-12-02T03:37:47.980Z,92.99
2017-12-02T03:38:57.955Z,92.24
2017-12-02T03:40:07.936Z,92.05
2017-12-02T03:41:17.925Z,92.52
2017-12-02T03:42:27.904Z,92.52
2017-12-02T03:43:37.629Z,92.05
2017-12-02T03:44:47.614Z,91.96
2017-12-02T03:45:57.596Z,92.43
2017-12-02T03:47:07.305Z,92.05
2017-12-02T03:48:17.288Z,92.05
2017-12-02T03:49:27.266Z,92.33
2017-12-02T03:50:37.299Z,92.43
2017-12-02T03:51:47.287Z,92.61
2017-12-02T03:52:57.267Z,92.24
2017-12-02T03:54:06.980Z,92.33
2017-12-02T03:55:16.963Z,92.43
2017-12-02T03:56:26.945Z,92.24
2017-12-02T03:57:36.931Z,92.52
2017-12-02T03:58:46.661Z,92.52
2017-12-02T03:59:56.643Z,93.09
2017-12-02T04:03:38.668Z,92.24
2017-12-02T04:04:48.657Z,92.8
2017-12-02T04:05:58.634Z,92.99
2017-12-02T04:07:08.351Z,93.56
2017-12-02T04:08:18.336Z,93.84
2017-12-02T04:09:28.313Z,93.94
2017-12-02T04:10:38.030Z,94.51
2017-12-02T04:11:48.017Z,94.22
2017-12-02T04:12:57.738Z,93.65
2017-12-02T04:14:07.196Z,93.65
2017-12-02T04:15:17.177Z,93.84
2017-12-02T04:16:26.893Z,94.13
2017-12-02T04:17:36.870Z,94.32
2017-12-02T04:18:46.850Z,94.41
2017-12-02T04:19:56.828Z,94.41
2017-12-02T04:21:06.807Z,94.32
2017-12-02T04:22:16.789Z,94.32
2017-12-02T04:23:26.790Z,94.79
2017-12-02T04:24:36.773Z,94.79
2017-12-02T04:25:46.758Z,94.41
2017-12-02T04:26:56.736Z,94.88
2017-12-02T04:28:06.454Z,94.32
2017-12-02T04:29:16.433Z,94.32
2017-12-02T04:30:26.495Z,93.84
2017-12-02T04:31:36.482Z,94.03
2017-12-02T04:32:46.460Z,93.65
2017-12-02T04:33:56.439Z,94.6
2017-12-02T04:35:06.424Z,95.36
2017-12-02T04:36:16.413Z,94.98
2017-12-02T04:37:26.395Z,94.98
2017-12-02T04:38:36.110Z,94.22
2017-12-02T04:39:46.088Z,94.46
2017-12-02T04:40:56.073Z,94.36
2017-12-02T04:42:05.784Z,93.8
2017-12-02T04:43:15.763Z,94.36
2017-12-02T04:44:25.766Z,93.94
2017-12-02T04:45:35.798Z,93.51
2017-12-02T04:46:45.788Z,94.08
2017-12-02T04:47:55.764Z,93.75
2017-12-02T04:49:05.744Z,93.84
2017-12-02T04:50:15.724Z,93.47
2017-12-02T04:51:25.716Z,93.47
2017-12-02T04:52:35.704Z,93.65
2017-12-02T04:53:45.687Z,93.56
2017-12-02T04:54:55.665Z,93.65
2017-12-02T04:56:05.110Z,93.47
2017-12-02T04:57:15.100Z,94.13
2017-12-02T04:58:25.088Z,94.13
2017-12-02T04:59:35.068Z,94.41
2017-12-02T05:00:45.056Z,93.65
2017-12-02T05:01:55.037Z,93.65
2017-12-02T05:03:04.752Z,93.47
2017-12-02T05:04:14.731Z,93.28
2017-12-02T05:05:24.710Z,93.56
2017-12-02T05:06:34.691Z,93.28
2017-12-02T05:07:44.671Z,93.94
2017-12-02T05:08:54.655Z,94.32
2017-12-02T05:10:04.367Z,94.41
2017-12-02T05:11:14.082Z,94.51
2017-12-02T05:12:24.060Z,94.41
2017-12-02T05:13:34.047Z,94.6
2017-12-02T05:14:43.760Z,94.79
2017-12-02T05:15:53.743Z,95.36
2017-12-02T05:17:03.724Z,94.79
2017-12-02T05:18:13.708Z,94.79
2017-12-02T05:19:23.695Z,94.69
2017-12-02T05:20:33.409Z,94.79
2017-12-02T05:21:43.388Z,95.07
2017-12-02T05:22:53.375Z,95.07
2017-12-02T05:24:03.354Z,94.6
2017-12-02T05:25:13.333Z,94.79
2017-12-02T05:26:23.314Z,94.79
2017-12-02T05:27:33.028Z,94.98
2017-12-02T05:28:43.005Z,95.07
2017-12-02T05:29:52.722Z,94.69
2017-12-02T05:31:02.493Z,94.88
2017-12-02T05:32:12.473Z,94.88
2017-12-02T05:33:22.190Z,94.51
2017-12-02T05:34:32.172Z,94.88
2017-12-02T05:35:41.888Z,94.79
2017-12-02T05:36:51.868Z,94.69
2017-12-02T05:38:01.858Z,94.41
2017-12-02T05:39:11.574Z,94.98
2017-12-02T05:40:21.552Z,95.07
2017-12-02T05:41:31.531Z,94.79
2017-12-02T05:42:43.280Z,94.88
2017-12-02T05:43:53.269Z,94.6
2017-12-02T05:45:03.261Z,94.6
2017-12-02T05:46:13.258Z,94.41
2017-12-02T05:47:22.970Z,94.41
2017-12-02T05:48:32.958Z,94.41
2017-12-02T05:49:43.008Z,94.13
2017-12-02T05:50:52.984Z,94.22
2017-12-02T05:52:02.974Z,94.41
2017-12-02T05:53:12.957Z,94.41
2017-12-02T05:54:22.936Z,94.03
2017-12-02T05:55:32.927Z,94.51
2017-12-02T05:56:42.915Z,94.88
2017-12-02T05:57:52.896Z,94.51
2017-12-02T05:59:02.348Z,94.88
2017-12-02T06:00:12.328Z,94.6
2017-12-02T06:01:22.316Z,94.98
2017-12-02T06:02:32.029Z,94.79
2017-12-02T06:03:42.007Z,95.36
2017-12-02T06:04:51.984Z,94.6
2017-12-02T06:06:01.694Z,94.51
2017-12-02T06:07:11.672Z,94.32
2017-12-02T06:08:21.651Z,94.13
2017-12-02T06:09:31.625Z,93.84
2017-12-02T06:10:41.607Z,94.13
2017-12-02T06:11:51.355Z,94.98
2017-12-02T06:13:01.072Z,95.07
2017-12-02T06:14:11.046Z,94.98
2017-12-02T06:15:21.021Z,94.6
2017-12-02T06:16:31.000Z,94.79
2017-12-02T06:17:40.715Z,94.51
2017-12-02T06:18:50.700Z,94.69
2017-12-02T06:20:00.680Z,94.79
2017-12-02T06:21:09.870Z,95.54
2017-12-02T06:22:19.859Z,95.36
2017-12-02T06:23:29.891Z,96.01
2017-12-02T06:24:39.868Z,95.83
2017-12-02T06:25:49.856Z,95.83
2017-12-02T06:26:59.849Z,96.01
2017-12-02T06:28:09.562Z,96.01
2017-12-02T06:29:19.539Z,96.01
2017-12-02T06:30:29.532Z,96.01
2017-12-02T06:31:38.984Z,96.2
2017-12-02T06:32:48.720Z,96.11
2017-12-02T06:33:58.701Z,96.11
2017-12-02T06:35:08.411Z,96.2
2017-12-02T06:36:18.390Z,96.11
2017-12-02T06:37:28.382Z,96.2
2017-12-02T06:38:38.359Z,96.01
2017-12-02T06:39:48.335Z,96.77
2017-12-02T06:40:58.317Z,96.95
2017-12-02T06:42:08.028Z,96.77
2017-12-02T06:43:18.011Z,96.01
2017-12-02T06:44:27.994Z,96.01
2017-12-02T06:45:37.973Z,96.77
2017-12-02T06:46:47.957Z,96.48
2017-12-02T06:47:57.936Z,96.86
2017-12-02T06:49:07.658Z,97.05
2017-12-02T06:50:17.375Z,96.86
2017-12-02T06:51:27.364Z,96.95
2017-12-02T06:52:37.396Z,97.43
2017-12-02T06:53:46.845Z,97.8
2017-12-02T06:54:56.833Z,98.18
2017-12-02T06:56:06.594Z,98.18
2017-12-02T06:57:16.582Z,98.65
2017-12-02T06:58:26.295Z,98.65
2017-12-02T06:59:36.278Z,98.65
2017-12-02T07:00:46.042Z,98.94
2017-12-02T07:01:56.071Z,99.03
2017-12-02T07:03:06.051Z,98.75
2017-12-02T07:04:15.770Z,98.94
2017-12-02T07:05:25.750Z,99.22
2017-12-02T07:06:35.731Z,99.32
2017-12-02T07:07:45.449Z,98.75
2017-12-02T07:08:55.432Z,98.56
2017-12-02T07:10:05.418Z,98.47
2017-12-02T07:11:15.391Z,97.99
2017-12-02T07:12:25.101Z,98.28
2017-12-02T07:13:35.082Z,97.71
2017-12-02T07:14:44.806Z,97.52
2017-12-02T07:15:54.782Z,97.52
2017-12-02T07:17:04.246Z,97.8
2017-12-02T07:18:14.289Z,97.99
2017-12-02T07:19:24.267Z,98.47
2017-12-02T07:20:33.978Z,98.65
2017-12-02T07:21:43.687Z,99.03
2017-12-02T07:22:53.663Z,98.65
2017-12-02T07:24:03.112Z,97.99
2017-12-02T07:25:13.087Z,98.47
2017-12-02T07:26:23.063Z,97.8
2017-12-02T07:27:33.040Z,97.67
2017-12-02T07:28:42.752Z,97.24
2017-12-02T07:29:52.730Z,97.05
2017-12-02T07:31:02.708Z,97.61
2017-12-02T07:32:12.741Z,97.14
2017-12-02T07:33:22.718Z,97.52
2017-12-02T07:34:32.712Z,96.77
2017-12-02T07:35:42.691Z,96.67
2017-12-02T07:36:52.676Z,96.72
2017-12-02T07:38:02.670Z,96.63
2017-12-02T07:39:12.654Z,97.05
2017-12-02T07:40:22.633Z,97.29
2017-12-02T07:41:32.612Z,97.48
2017-12-02T07:42:42.588Z,97.48
2017-12-02T07:43:52.566Z,97.57
2017-12-02T07:45:02.562Z,97.95
2017-12-02T07:46:12.280Z,97.85
2017-12-02T07:47:22.260Z,97.67
2017-12-02T07:48:32.246Z,98.42
2017-12-02T07:49:42.228Z,97.38
2017-12-02T07:50:51.945Z,97.29
2017-12-02T07:52:01.663Z,96.72
2017-12-02T07:53:11.376Z,96.72
2017-12-02T07:54:21.354Z,97.19
2017-12-02T07:55:31.335Z,96.81
2017-12-02T07:56:41.312Z,96.72
2017-12-02T07:57:51.291Z,97.29
2017-12-02T07:59:01.274Z,96.44
2017-12-02T08:00:11.251Z,96.81
2017-12-02T08:01:21.274Z,96.72
2017-12-02T08:02:30.987Z,96.81
2017-12-02T08:03:40.964Z,96.91
2017-12-02T08:04:50.953Z,97.29
2017-12-02T08:06:00.982Z,96.81
2017-12-02T08:07:10.694Z,97.19
2017-12-02T08:08:22.925Z,97.19
2017-12-02T08:09:32.909Z,97.48
2017-12-02T08:10:42.888Z,97.19
2017-12-02T08:11:52.605Z,97.48
2017-12-02T08:13:02.324Z,97.19
2017-12-02T08:14:12.335Z,96.72
2017-12-02T08:15:22.312Z,96.34
2017-12-02T08:16:32.294Z,96.44
2017-12-02T08:17:42.288Z,96.15
2017-12-02T08:18:52.278Z,96.25
2017-12-02T08:20:01.994Z,96.81
2017-12-02T08:21:12.028Z,96.72
2017-12-02T08:22:22.009Z,96.91
2017-12-02T08:23:31.986Z,95.97
2017-12-02T08:24:41.964Z,96.34
2017-12-02T08:25:51.941Z,96.25
2017-12-02T08:27:01.656Z,96.15
2017-12-02T08:28:11.636Z,96.81
2017-12-02T08:29:21.081Z,96.91
2017-12-02T08:30:31.068Z,96.34
2017-12-02T08:31:41.048Z,95.5
2017-12-02T08:32:51.022Z,94.65
2017-12-02T08:34:01.000Z,95.21
2017-12-02T08:35:10.720Z,95.03
2017-12-02T08:36:20.700Z,94.84
2017-12-02T08:37:30.677Z,94.74
2017-12-02T08:38:40.659Z,94.74
2017-12-02T08:39:50.637Z,95.21
2017-12-02T08:41:00.619Z,94.84
2017-12-02T08:42:10.384Z,95.03
2017-12-02T08:43:20.389Z,95.21
2017-12-02T08:44:30.381Z,95.5
2017-12-02T08:45:40.356Z,95.68
2017-12-02T08:46:50.332Z,95.59
2017-12-02T08:48:00.313Z,95.5
2017-12-02T08:49:10.032Z,95.97
2017-12-02T08:50:20.014Z,95.87
2017-12-02T08:51:30.000Z,95.59
2017-12-02T08:52:39.979Z,95.12
2017-12-02T08:53:49.967Z,95.21
2017-12-02T08:54:59.948Z,94.84
2017-12-02T08:56:09.672Z,94.84
2017-12-02T08:57:19.655Z,95.03
2017-12-02T08:58:29.638Z,95.78
2017-12-02T08:59:39.628Z,95.5
2017-12-02T09:00:49.346Z,95.4
2017-12-02T09:01:59.334Z,95.12
2017-12-02T09:03:09.382Z,94.93
2017-12-02T09:04:18.840Z,94.65
2017-12-02T09:05:28.870Z,94.55
2017-12-02T09:06:38.851Z,94.46
2017-12-02T09:07:48.829Z,95.03
2017-12-02T09:08:58.806Z,94.65
2017-12-02T09:10:08.527Z,94.46
2017-12-02T09:11:18.515Z,93.99
2017-12-02T09:12:28.235Z,94.36
2017-12-02T09:13:38.212Z,94.27
2017-12-02T09:14:48.186Z,94.18
2017-12-02T09:15:58.170Z,94.18
2017-12-02T09:17:07.927Z,93.99
2017-12-02T09:18:17.647Z,93.99
2017-12-02T09:19:27.363Z,94.65
2017-12-02T09:20:37.351Z,94.74
2017-12-02T09:21:47.333Z,94.84
2017-12-02T09:22:57.062Z,95.17
2017-12-02T09:24:07.094Z,95.07
2017-12-02T09:25:17.074Z,95.12
2017-12-02T09:26:27.063Z,94.98
2017-12-02T09:27:37.057Z,94.89
2017-12-02T09:28:47.035Z,94.7
2017-12-02T09:29:56.756Z,95.45
2017-12-02T09:31:06.737Z,94.89
2017-12-02T09:32:16.720Z,95.26
2017-12-02T09:33:26.738Z,95.07
2017-12-02T09:34:36.766Z,95.17
2017-12-02T09:35:46.752Z,94.89
2017-12-02T09:36:56.472Z,94.79
2017-12-02T09:38:06.453Z,94.6
2017-12-02T09:39:16.168Z,94.89
2017-12-02T09:40:26.160Z,94.89
2017-12-02T09:41:36.144Z,94.89
2017-12-02T09:42:46.129Z,94.89
2017-12-02T09:43:56.115Z,95.07
2017-12-02T09:45:05.887Z,95.36
2017-12-02T09:46:15.892Z,95.26
2017-12-02T09:47:25.885Z,95.36
2017-12-02T09:48:35.612Z,94.98
2017-12-02T09:49:45.592Z,94.89
2017-12-02T09:50:55.306Z,94.79
2017-12-02T09:52:04.513Z,94.22
2017-12-02T09:53:13.964Z,94.98
2017-12-02T09:54:23.947Z,94.22
2017-12-02T09:55:33.930Z,94.51
2017-12-02T09:56:43.912Z,94.89
2017-12-02T09:57:53.648Z,94.51
2017-12-02T09:59:03.368Z,95.07
2017-12-02T10:00:13.093Z,94.51
2017-12-02T10:01:23.086Z,93.94
2017-12-02T10:02:32.856Z,93.56
2017-12-02T10:03:42.570Z,93.18
2017-12-02T10:04:52.548Z,93.28
2017-12-02T10:06:02.263Z,93.75
2017-12-02T10:07:11.980Z,92.9
2017-12-02T10:08:21.961Z,92.52
2017-12-02T10:09:31.943Z,92.52
2017-12-02T10:10:41.924Z,92.61
2017-12-02T10:11:51.904Z,91.86
2017-12-02T10:13:01.361Z,92.33
2017-12-02T10:14:11.118Z,92.99
2017-12-02T10:15:21.109Z,92.33
2017-12-02T10:16:31.400Z,92.52
2017-12-02T10:17:40.857Z,92.24
2017-12-02T10:18:50.844Z,92.61
2017-12-02T10:20:00.837Z,92.52
2017-12-02T10:21:10.561Z,92.05
2017-12-02T10:22:20.548Z,92.52
2017-12-02T10:23:30.529Z,92.99
2017-12-02T10:24:40.511Z,92.61
2017-12-02T10:25:50.562Z,92.71
2017-12-02T10:27:00.566Z,93.28
2017-12-02T10:28:10.283Z,93.37
2017-12-02T10:29:20.276Z,94.13
2017-12-02T10:30:30.260Z,94.89
2017-12-02T10:31:40.247Z,94.89
2017-12-02T10:32:50.230Z,94.89
2017-12-02T10:33:59.685Z,95.26
2017-12-02T10:35:09.670Z,94.7
2017-12-02T10:36:19.130Z,94.89
2017-12-02T10:37:29.111Z,94.7
2017-12-02T10:38:39.095Z,94.6
2017-12-02T10:39:48.816Z,94.98
2017-12-02T10:40:58.796Z,95.17
2017-12-02T10:42:08.513Z,95.31
2017-12-02T10:43:18.514Z,94.56
2017-12-02T10:44:28.497Z,95.21
2017-12-02T10:45:38.542Z,94.93
2017-12-02T10:46:48.260Z,95.03
2017-12-02T10:47:58.251Z,94.13
2017-12-02T10:49:08.230Z,94.93
2017-12-02T10:50:18.209Z,95.21
2017-12-02T10:51:27.933Z,95.64
2017-12-02T10:52:37.914Z,95.78
2017-12-02T10:53:47.904Z,95.26
2017-12-02T10:54:57.882Z,95.54
2017-12-02T10:56:07.339Z,95.5
2017-12-02T10:57:17.320Z,95.54
2017-12-02T10:58:27.302Z,95.45
2017-12-02T10:59:37.283Z,95.97
2017-12-02T11:00:47.272Z,95.73
2017-12-02T11:01:57.260Z,96.39
2017-12-02T11:03:06.976Z,96.2
2017-12-02T11:04:17.017Z,96.63
2017-12-02T11:05:26.735Z,96.44
2017-12-02T11:06:36.713Z,95.97
2017-12-02T11:07:46.695Z,96.06
2017-12-02T11:08:56.676Z,95.97
2017-12-02T11:10:06.393Z,96.06
2017-12-02T11:11:16.394Z,96.63
2017-12-02T11:12:26.109Z,96.44
2017-12-02T11:13:36.103Z,96.44
2017-12-02T11:14:46.084Z,96.25
2017-12-02T11:15:56.074Z,96.16
2017-12-02T11:17:06.055Z,95.87
2017-12-02T11:18:16.106Z,95.97
2017-12-02T11:19:26.096Z,96.44
2017-12-02T11:20:36.077Z,96.25
2017-12-02T11:21:46.060Z,95.68
2017-12-02T11:22:56.041Z,96.25
2017-12-02T11:24:06.021Z,96.63
2017-12-02T11:25:15.995Z,96.44
2017-12-02T11:26:25.980Z,96.25
2017-12-02T11:27:35.702Z,96.3
2017-12-02T11:28:45.694Z,96.68
2017-12-02T11:29:55.407Z,97.91
2017-12-02T11:31:05.388Z,97.81
2017-12-02T11:32:15.384Z,97.39
2017-12-02T11:33:25.368Z,96.96
2017-12-02T11:34:35.408Z,96.49
2017-12-02T11:35:45.390Z,96.11
2017-12-02T11:36:54.900Z,96.2
2017-12-02T11:38:04.620Z,97.15
2017-12-02T11:39:14.603Z,97.05
2017-12-02T11:40:24.583Z,97.15
2017-12-02T11:41:34.566Z,98.19
2017-12-02T11:42:44.311Z,97.53
2017-12-02T11:43:54.303Z,97.24
2017-12-02T11:45:04.351Z,97.43
2017-12-02T11:46:14.117Z,98.38
2017-12-02T11:47:24.134Z,98.38
2017-12-02T11:48:33.851Z,98.57
2017-12-02T11:49:43.831Z,98.66
2017-12-02T11:50:53.813Z,98.66
2017-12-02T11:52:02.997Z,99.13
2017-12-02T11:53:12.977Z,99.22
2017-12-02T11:54:22.503Z,98.66
2017-12-02T11:55:32.491Z,98.1
2017-12-02T11:56:42.487Z,98.66
2017-12-02T11:57:52.485Z,98.38
2017-12-02T11:59:02.209Z,98.38
2017-12-02T12:00:12.208Z,97.81
2017-12-02T12:01:21.943Z,97.81
2017-12-02T12:02:31.929Z,98.38
2017-12-02T12:03:41.911Z,98.66
2017-12-02T12:04:51.628Z,98.28
2017-12-02T12:06:01.348Z,99.22
2017-12-02T12:07:11.072Z,99.22
2017-12-02T12:08:21.122Z,98.85
2017-12-02T12:09:30.842Z,98.94
2017-12-02T12:10:40.832Z,98.94
2017-12-02T12:11:50.873Z,98.57
2017-12-02T12:13:00.334Z,98.85
2017-12-02T12:14:10.103Z,98.38
2017-12-02T12:15:19.824Z,98.47
2017-12-02T12:16:29.541Z,98.47
2017-12-02T12:17:39.533Z,98.38
2017-12-02T12:18:49.516Z,98.57
2017-12-02T12:19:59.496Z,98.47
2017-12-02T12:21:08.689Z,98.57
2017-12-02T12:22:18.677Z,98.66
2017-12-02T12:23:28.662Z,98
2017-12-02T12:24:38.648Z,97.72
2017-12-02T12:25:48.631Z,97.62
2017-12-02T12:26:58.611Z,97.34
2017-12-02T12:28:08.608Z,97.72
2017-12-02T12:29:18.330Z,97.72
2017-12-02T12:30:28.319Z,97.72
2017-12-02T12:31:38.307Z,97.72
2017-12-02T12:32:48.023Z,97.53
2017-12-02T12:33:58.019Z,97.43
2017-12-02T12:35:07.750Z,97.72
2017-12-02T12:36:17.734Z,97.77
2017-12-02T12:37:27.714Z,98.24
2017-12-02T12:38:37.698Z,98.14
2017-12-02T12:39:47.755Z,97.91
2017-12-02T12:40:57.775Z,98.38
2017-12-02T12:42:07.759Z,99.13
2017-12-02T12:43:17.753Z,99.98
2017-12-02T12:44:27.738Z,99.99
2017-12-02T12:45:37.721Z,99.88
2017-12-02T12:46:47.443Z,99.7
2017-12-02T12:47:57.424Z,99.99
2017-12-02T12:49:07.412Z,99.98
2017-12-02T12:50:17.131Z,99.7
2017-12-02T12:51:27.115Z,99.99
2017-12-02T12:52:37.097Z,99.99
2017-12-02T12:53:46.548Z,99.99
2017-12-02T12:54:56.545Z,99.99
2017-12-02T12:56:05.996Z,99.99
2017-12-02T12:57:15.976Z,99.99
2017-12-02T12:58:25.965Z,99.99
2017-12-02T12:59:35.955Z,99.99
2017-12-02T13:00:45.940Z,99.99
2017-12-02T13:01:55.389Z,99.99
2017-12-02T13:03:05.383Z,99.99
2017-12-02T13:04:15.366Z,99.99
2017-12-02T13:05:25.350Z,99.99
2017-12-02T13:06:35.340Z,99.99
2017-12-02T13:07:45.052Z,99.99
2017-12-02T13:08:55.043Z,99.99
2017-12-02T13:10:04.494Z,99.99
2017-12-02T13:11:14.473Z,99.99
2017-12-02T13:12:24.458Z,99.99
2017-12-02T13:13:34.446Z,99.99
2017-12-02T13:14:44.430Z,99.99
2017-12-02T13:15:54.410Z,99.99
2017-12-02T13:17:03.597Z,99.99
2017-12-02T13:18:13.578Z,99.99
2017-12-02T13:19:23.563Z,99.99
2017-12-02T13:20:33.553Z,99.99
2017-12-02T13:21:43.534Z,99.99
2017-12-02T13:22:55.516Z,99.99
2017-12-02T13:24:05.245Z,99.99
2017-12-02T13:25:15.225Z,99.99
2017-12-02T13:26:25.252Z,99.99
2017-12-02T13:27:34.967Z,99.99
2017-12-02T13:28:44.951Z,99.99
2017-12-02T13:29:54.662Z,99.99
2017-12-02T13:31:04.378Z,99.99
2017-12-02T13:32:14.427Z,99.99
2017-12-02T13:33:24.420Z,99.99
2017-12-02T13:34:34.135Z,99.99
2017-12-02T13:35:43.858Z,99.99
2017-12-02T13:36:53.589Z,99.99
2017-12-02T13:38:03.597Z,99.99
2017-12-02T13:39:13.318Z,99.99
2017-12-02T13:40:23.316Z,99.99
2017-12-02T13:41:33.312Z,99.99
2017-12-02T13:42:43.044Z,99.99
2017-12-02T13:43:53.036Z,99.99
2017-12-02T13:45:02.483Z,99.99
2017-12-02T13:46:11.938Z,99.99
2017-12-02T13:47:21.657Z,99.99
2017-12-02T13:48:31.376Z,99.99
2017-12-02T13:49:41.096Z,99.99
2017-12-02T13:50:51.127Z,99.99
2017-12-02T13:52:01.110Z,99.99
2017-12-02T13:53:11.092Z,99.99
2017-12-02T13:54:21.076Z,99.99
2017-12-02T13:55:31.067Z,99.99
2017-12-02T13:56:40.781Z,99.99
2017-12-02T13:57:50.497Z,99.99
2017-12-02T13:59:00.217Z,99.99
2017-12-02T14:00:09.665Z,99.99
2017-12-02T14:01:19.646Z,99.99
2017-12-02T14:02:29.626Z,99.99
2017-12-02T14:03:39.341Z,99.99
2017-12-02T14:04:49.331Z,99.99
2017-12-02T14:05:59.046Z,99.99
2017-12-02T14:07:08.764Z,99.99
2017-12-02T14:08:18.747Z,99.99
2017-12-02T14:09:28.737Z,99.99
2017-12-02T14:10:38.720Z,99.99
2017-12-02T14:11:48.722Z,99.99
2017-12-02T14:12:58.707Z,99.99
2017-12-02T14:14:08.426Z,99.99
2017-12-02T14:15:18.408Z,99.99
2017-12-02T14:16:28.394Z,99.99
2017-12-02T14:17:38.381Z,99.99
2017-12-02T14:18:48.095Z,99.99
2017-12-02T14:19:58.079Z,99.99
2017-12-02T14:21:08.070Z,99.99
2017-12-02T14:22:17.790Z,99.99
2017-12-02T14:23:27.770Z,99.99
2017-12-02T14:24:37.749Z,99.99
2017-12-02T14:25:47.465Z,99.99
2017-12-02T14:26:57.448Z,99.99
2017-12-02T14:28:06.900Z,99.99
2017-12-02T14:29:16.617Z,99.99
2017-12-02T14:30:26.335Z,99.99
2017-12-02T14:31:36.318Z,99.99
2017-12-02T14:32:46.053Z,99.99
2017-12-02T14:33:56.035Z,99.99
2017-12-02T14:35:05.487Z,99.99
2017-12-02T14:36:14.677Z,99.99
2017-12-02T14:37:24.667Z,99.99
2017-12-02T14:38:34.689Z,99.99
2017-12-02T14:39:44.674Z,99.99
2017-12-02T14:40:54.393Z,99.99
2017-12-02T14:42:04.376Z,99.99
2017-12-02T14:43:14.358Z,99.99
2017-12-02T14:44:24.350Z,99.99
2017-12-02T14:45:34.082Z,99.99
2017-12-02T14:46:44.064Z,99.99
2017-12-02T14:47:53.781Z,99.99
2017-12-02T14:49:03.235Z,99.99
2017-12-02T14:50:13.215Z,99.99
2017-12-02T14:51:23.198Z,99.99
2017-12-02T14:52:33.230Z,99.99
2017-12-02T14:53:42.950Z,99.99
2017-12-02T14:54:52.929Z,99.99
2017-12-02T14:56:02.925Z,99.99
2017-12-02T14:57:12.905Z,99.99
2017-12-02T14:58:22.904Z,99.99
2017-12-02T14:59:32.884Z,99.99
2017-12-02T15:00:42.898Z,99.99
2017-12-02T15:01:52.883Z,99.99
2017-12-02T15:03:02.602Z,99.99
2017-12-02T15:04:12.587Z,99.99
2017-12-02T15:05:22.569Z,99.99